createdAt,value
2023-02-25T00:02:02.775Z,6.20
2023-02-25T00:04:32.640Z,6.20
2023-02-25T00:11:28.920Z,6.20
2023-02-25T00:13:57.042Z,6.20
2023-02-25T00:16:26.254Z,6.10
2023-02-25T00:18:55.891Z,6.10
2023-02-25T00:21:24.504Z,6.10
2023-02-25T00:24:19.022Z,6.10
2023-02-25T00:26:48.472Z,6.10
2023-02-25T00:29:16.858Z,6.00
2023-02-25T00:31:46.824Z,6.00
2023-02-25T00:34:18.014Z,6.10
2023-02-25T00:36:46.444Z,6.00
2023-02-25T00:39:15.470Z,6.20
2023-02-25T00:42:34.091Z,6.00
2023-02-25T00:45:03.694Z,6.00
2023-02-25T00:47:31.983Z,6.00
2023-02-25T00:49:59.978Z,6.10
2023-02-25T00:52:28.415Z,5.90
2023-02-25T00:54:56.587Z,6.20
2023-02-25T00:57:26.581Z,5.90
2023-02-25T00:59:54.823Z,5.90
2023-02-25T01:02:24.432Z,5.80
2023-02-25T01:04:53.053Z,6.20
2023-02-25T01:07:21.823Z,5.90
2023-02-25T01:09:50.081Z,5.90
2023-02-25T01:12:18.739Z,5.90
2023-02-25T01:14:47.234Z,6.10
2023-02-25T01:17:15.227Z,6.00
2023-02-25T01:19:45.483Z,6.10
2023-02-25T01:22:15.728Z,5.90
2023-02-25T01:24:44.370Z,6.00
2023-02-25T01:45:28.278Z,5.80
2023-02-25T01:48:01.217Z,5.80
2023-02-25T01:50:36.937Z,5.70
2023-02-25T01:53:06.507Z,5.70
2023-02-25T01:55:35.079Z,5.70
2023-02-25T01:58:03.421Z,5.80
2023-02-25T02:00:35.389Z,5.80
2023-02-25T02:03:03.720Z,5.90
2023-02-25T02:05:45.544Z,5.70
2023-02-25T02:08:13.986Z,5.80
2023-02-25T02:10:44.591Z,5.90
2023-02-25T02:13:12.794Z,5.70
2023-02-25T02:15:51.393Z,5.70
2023-02-25T02:18:21.658Z,5.70
2023-02-25T02:21:04.808Z,5.60
2023-02-25T02:24:09.546Z,5.70
2023-02-25T02:26:50.389Z,5.70
2023-02-25T02:29:43.378Z,5.60
2023-02-25T02:32:18.497Z,5.60
2023-02-25T02:34:58.031Z,5.50
2023-02-25T02:37:34.014Z,5.50
2023-02-25T02:40:17.679Z,5.50
2023-02-25T02:42:56.283Z,5.50
2023-02-25T02:45:35.296Z,5.50
2023-02-25T02:48:09.335Z,5.50
2023-02-25T02:50:41.697Z,5.50
2023-02-25T02:53:15.342Z,5.50
2023-02-25T02:55:47.843Z,5.50
2023-02-25T02:58:21.405Z,5.70
2023-02-25T03:00:55.828Z,5.50
2023-02-25T03:03:36.687Z,5.50
2023-02-25T03:06:08.955Z,5.50
2023-02-25T03:08:44.900Z,5.50
2023-02-25T03:11:14.165Z,5.50
2023-02-25T03:13:46.333Z,5.60
2023-02-25T03:16:22.667Z,5.50
2023-02-25T03:18:58.633Z,5.50
2023-02-25T03:21:31.553Z,5.40
2023-02-25T03:24:01.702Z,5.60
2023-02-25T03:26:32.288Z,5.40
2023-02-25T03:29:05.488Z,5.30
2023-02-25T03:31:39.175Z,5.30
2023-02-25T03:34:12.141Z,5.20
2023-02-25T03:36:43.929Z,5.10
2023-02-25T03:39:20.190Z,5.10
2023-02-25T03:41:53.090Z,5.00
2023-02-25T03:44:27.708Z,5.00
2023-02-25T03:46:57.568Z,5.00
2023-02-25T03:49:34.417Z,5.00
2023-02-25T03:52:05.824Z,5.00
2023-02-25T03:54:34.150Z,5.00
2023-02-25T03:57:03.754Z,5.00
2023-02-25T03:59:31.788Z,5.00
2023-02-25T04:02:02.534Z,4.90
2023-02-25T04:04:32.386Z,5.10
2023-02-25T04:07:00.458Z,4.90
2023-02-25T04:09:28.961Z,4.90
2023-02-25T04:11:57.087Z,4.80
2023-02-25T04:14:26.339Z,4.70
2023-02-25T04:16:54.731Z,4.70
2023-02-25T04:19:23.883Z,4.60
2023-02-25T04:21:53.393Z,4.50
2023-02-25T04:24:22.090Z,4.40
2023-02-25T04:26:50.469Z,4.40
2023-02-25T04:29:18.730Z,4.30
2023-02-25T04:31:46.866Z,4.30
2023-02-25T04:34:15.459Z,4.40
2023-02-25T04:36:44.653Z,4.40
2023-02-25T04:39:16.406Z,4.40
2023-02-25T04:41:45.014Z,4.50
2023-02-25T04:44:13.063Z,4.50
2023-02-25T04:46:45.699Z,4.50
2023-02-25T04:49:13.735Z,4.60
2023-02-25T04:51:42.012Z,4.60
2023-02-25T04:54:10.136Z,4.70
2023-02-25T04:56:41.424Z,4.60
2023-02-25T04:59:11.776Z,4.60
2023-02-25T05:01:40.140Z,4.60
2023-02-25T05:04:08.890Z,4.60
2023-02-25T05:06:40.622Z,4.70
2023-02-25T05:09:10.368Z,4.60
2023-02-25T05:11:40.426Z,4.70
2023-02-25T05:14:08.488Z,4.80
2023-02-25T05:16:37.330Z,4.70
2023-02-25T05:19:06.930Z,4.70
2023-02-25T05:21:35.435Z,4.80
2023-02-25T05:24:03.946Z,4.80
2023-02-25T05:26:32.918Z,4.70
2023-02-25T05:29:02.364Z,4.70
2023-02-25T05:31:32.096Z,4.70
2023-02-25T05:34:00.231Z,4.70
2023-02-25T05:36:31.078Z,4.70
2023-02-25T05:39:02.644Z,4.70
2023-02-25T05:41:32.438Z,4.70
2023-02-25T05:44:01.874Z,4.70
2023-02-25T05:46:30.536Z,4.70
2023-02-25T05:48:58.834Z,4.70
2023-02-25T05:51:27.191Z,4.70
2023-02-25T05:53:55.493Z,4.60
2023-02-25T05:56:28.865Z,4.60
2023-02-25T05:58:58.733Z,4.60
2023-02-25T06:01:29.570Z,4.60
2023-02-25T06:03:59.031Z,4.60
2023-02-25T06:06:28.601Z,4.60
2023-02-25T06:08:57.292Z,4.50
2023-02-25T06:11:29.818Z,4.50
2023-02-25T06:13:59.654Z,4.50
2023-02-25T06:16:32.617Z,4.50
2023-02-25T06:19:02.309Z,4.50
2023-02-25T06:21:31.182Z,4.50
2023-02-25T06:24:00.702Z,4.50
2023-02-25T06:26:29.527Z,4.50
2023-02-25T06:28:58.783Z,4.50
2023-02-25T06:31:26.749Z,4.50
2023-02-25T06:33:56.715Z,4.50
2023-02-25T06:36:25.595Z,4.60
2023-02-25T06:38:54.286Z,4.60
2023-02-25T06:41:24.045Z,4.60
2023-02-25T06:43:54.402Z,4.60
2023-02-25T06:46:26.231Z,4.70
2023-02-25T06:48:56.025Z,4.70
2023-02-25T06:51:25.836Z,4.70
2023-02-25T06:53:54.690Z,4.80
2023-02-25T06:56:23.479Z,4.70
2023-02-25T06:58:52.625Z,4.70
2023-02-25T07:01:21.190Z,4.70
2023-02-25T07:03:50.946Z,4.80
2023-02-25T07:06:22.303Z,4.70
2023-02-25T07:08:50.620Z,4.70
2023-02-25T07:11:29.677Z,4.80
2023-02-25T07:13:58.415Z,4.90
2023-02-25T07:16:27.843Z,4.80
2023-02-25T07:18:55.963Z,4.80
2023-02-25T07:21:29.540Z,4.90
2023-02-25T07:23:58.080Z,5.30
2023-02-25T07:26:28.294Z,5.00
2023-02-25T07:28:57.940Z,5.00
2023-02-25T07:31:28.532Z,5.00
2023-02-25T07:33:57.483Z,5.10
2023-02-25T07:36:28.562Z,5.10
2023-02-25T07:38:56.621Z,5.10
2023-02-25T07:41:25.422Z,5.10
2023-02-25T07:43:54.129Z,5.20
2023-02-25T07:46:22.771Z,5.40
2023-02-25T07:48:51.394Z,5.20
2023-02-25T07:51:22.076Z,5.20
2023-02-25T07:53:53.476Z,5.20
2023-02-25T07:56:24.994Z,5.30
2023-02-25T07:58:53.088Z,5.40
2023-02-25T08:01:24.873Z,5.30
2023-02-25T08:03:55.343Z,5.40
2023-02-25T08:06:23.891Z,5.50
2023-02-25T08:08:55.507Z,5.50
2023-02-25T08:11:26.798Z,5.60
2023-02-25T08:13:57.045Z,5.60
2023-02-25T08:16:25.059Z,5.70
2023-02-25T08:18:55.076Z,5.60
2023-02-25T08:21:24.738Z,5.70
2023-02-25T08:23:55.655Z,5.70
2023-02-25T08:26:25.499Z,5.80
2023-02-25T08:28:54.655Z,5.80
2023-02-25T08:31:24.560Z,5.90
2023-02-25T08:33:53.650Z,5.90
2023-02-25T08:36:24.596Z,5.90
2023-02-25T08:38:55.136Z,5.80
2023-02-25T08:41:25.140Z,5.80
2023-02-25T08:43:55.440Z,5.70
2023-02-25T08:46:26.495Z,5.80
2023-02-25T08:48:56.327Z,5.70
2023-02-25T08:51:33.544Z,5.80
2023-02-25T08:54:05.709Z,5.60
2023-02-25T08:56:35.387Z,5.80
2023-02-25T08:59:03.609Z,5.80
2023-02-25T09:01:45.197Z,5.70
2023-02-25T09:04:14.905Z,5.70
2023-02-25T09:06:44.036Z,5.70
2023-02-25T09:09:13.496Z,5.90
2023-02-25T09:11:42.478Z,5.90
2023-02-25T09:14:11.472Z,6.00
2023-02-25T09:16:40.022Z,6.00
2023-02-25T09:19:08.695Z,6.10
2023-02-25T09:21:40.378Z,6.00
2023-02-25T09:24:10.077Z,6.00
2023-02-25T09:26:39.624Z,6.00
2023-02-25T09:29:09.714Z,6.10
2023-02-25T09:31:39.696Z,6.20
2023-02-25T09:34:15.497Z,6.30
2023-02-25T09:36:43.855Z,6.20
2023-02-25T09:39:12.970Z,6.30
2023-02-25T09:41:49.955Z,6.30
2023-02-25T09:44:21.462Z,6.40
2023-02-25T09:46:54.514Z,6.30
2023-02-25T09:49:30.369Z,6.40
2023-02-25T09:52:06.256Z,6.40
2023-02-25T09:54:40.019Z,6.50
2023-02-25T09:57:19.240Z,6.50
2023-02-25T09:59:47.776Z,6.60
2023-02-25T10:02:27.896Z,7.00
2023-02-25T10:05:24.119Z,6.80
2023-02-25T10:08:03.445Z,6.90
2023-02-25T10:10:39.500Z,7.00
2023-02-25T10:13:19.720Z,7.00
2023-02-25T10:15:53.356Z,7.10
2023-02-25T10:18:36.832Z,7.20
2023-02-25T10:21:19.000Z,7.20
2023-02-25T10:24:04.869Z,7.10
2023-02-25T10:26:40.307Z,7.00
2023-02-25T10:29:18.013Z,7.00
2023-02-25T10:31:47.367Z,6.90
2023-02-25T10:34:22.600Z,7.00
2023-02-25T10:36:55.521Z,7.10
2023-02-25T10:39:24.175Z,7.20
2023-02-25T10:41:53.258Z,7.20
2023-02-25T10:44:23.153Z,7.10
2023-02-25T10:46:55.737Z,7.10
2023-02-25T10:49:26.447Z,7.20
2023-02-25T10:52:01.249Z,7.20
2023-02-25T10:54:30.532Z,7.20
2023-02-25T10:57:02.527Z,7.30
2023-02-25T10:59:37.168Z,7.20
2023-02-25T11:02:20.793Z,7.40
2023-02-25T11:04:52.174Z,7.40
2023-02-25T11:07:35.295Z,7.60
2023-02-25T11:10:13.108Z,7.40
2023-02-25T11:12:43.801Z,7.30
2023-02-25T11:15:50.038Z,7.20
2023-02-25T11:18:23.151Z,7.20
2023-02-25T11:20:55.222Z,7.10
2023-02-25T11:23:29.633Z,6.90
2023-02-25T11:25:58.057Z,6.90
2023-02-25T11:28:34.566Z,7.00
2023-02-25T11:31:11.804Z,6.80
2023-02-25T11:33:45.484Z,6.80
2023-02-25T11:36:14.237Z,6.70
2023-02-25T11:38:43.943Z,6.60
2023-02-25T11:41:34.389Z,6.60
2023-02-25T11:44:20.119Z,6.50
2023-02-25T11:46:57.295Z,6.60
2023-02-25T11:49:49.811Z,6.50
2023-02-25T11:52:26.205Z,6.60
2023-02-25T11:55:09.009Z,6.90
2023-02-25T11:57:47.665Z,6.60
2023-02-25T12:00:26.055Z,6.60
2023-02-25T12:03:16.285Z,6.70
2023-02-25T12:05:51.634Z,6.80
2023-02-25T12:08:45.459Z,6.90
2023-02-25T12:11:49.626Z,7.00
2023-02-25T12:15:07.411Z,6.90
2023-02-25T12:18:13.153Z,6.80
2023-02-25T12:21:15.489Z,6.70
2023-02-25T12:24:27.756Z,6.60
2023-02-25T12:27:14.458Z,6.50
2023-02-25T12:30:05.039Z,6.40
2023-02-25T12:32:53.068Z,6.30
2023-02-25T12:35:42.695Z,6.30
2023-02-25T12:38:38.191Z,6.20
2023-02-25T12:41:33.570Z,6.20
2023-02-25T12:44:21.587Z,6.20
2023-02-25T12:47:07.427Z,6.20
2023-02-25T12:50:02.349Z,6.20
2023-02-25T12:52:58.085Z,6.10
2023-02-25T12:55:54.599Z,6.30
2023-02-25T12:58:44.211Z,6.40
2023-02-25T13:01:34.220Z,6.50
2023-02-25T13:04:24.344Z,6.70
2023-02-25T13:07:19.237Z,6.80
2023-02-25T13:10:04.676Z,6.90
2023-02-25T13:12:55.331Z,7.00
2023-02-25T13:15:33.938Z,7.20
2023-02-25T13:18:21.003Z,7.10
2023-02-25T13:21:06.285Z,7.20
2023-02-25T13:23:58.470Z,7.30
2023-02-25T13:26:39.731Z,7.40
2023-02-25T13:29:27.759Z,7.40
2023-02-25T13:32:11.414Z,7.40
2023-02-25T13:34:49.118Z,7.60
2023-02-25T13:37:30.306Z,7.50
2023-02-25T13:41:37.242Z,7.50
2023-02-25T13:44:43.561Z,7.70
2023-02-25T13:47:43.844Z,8.00
2023-02-25T13:50:34.218Z,9.40
2023-02-25T13:53:35.039Z,10.10
2023-02-25T13:56:43.397Z,9.80
2023-02-25T13:59:42.795Z,9.50
2023-02-25T14:03:02.067Z,9.30
2023-02-25T14:06:01.509Z,8.90
2023-02-25T14:08:57.090Z,8.80
2023-02-25T14:11:51.330Z,9.30
2023-02-25T14:15:08.528Z,8.20
2023-02-25T14:17:55.780Z,8.40
2023-02-25T14:20:54.627Z,8.30
2023-02-25T14:23:42.910Z,8.30
2023-02-25T14:26:36.058Z,8.50
2023-02-25T14:29:25.108Z,8.90
2023-02-25T14:32:31.417Z,9.80
2023-02-25T14:35:40.827Z,9.60
2023-02-25T14:38:15.045Z,9.60
2023-02-25T14:40:51.758Z,9.40
2023-02-25T14:43:32.609Z,9.30
2023-02-25T14:46:27.669Z,9.20
2023-02-25T14:49:08.727Z,9.20
2023-02-25T14:52:28.268Z,9.00
2023-02-25T14:55:52.141Z,8.60
2023-02-25T14:58:43.772Z,8.50
2023-02-25T15:02:18.208Z,8.90
2023-02-25T15:05:30.593Z,8.10
2023-02-25T15:08:49.975Z,7.90
2023-02-25T15:12:01.696Z,7.80
2023-02-25T15:15:22.940Z,7.70
2023-02-25T15:18:30.928Z,7.70
2023-02-25T15:21:40.770Z,7.80
2023-02-25T15:24:41.333Z,7.80
2023-02-25T15:27:56.655Z,7.90
2023-02-25T15:30:29.717Z,7.60
2023-02-25T15:33:18.888Z,7.70
2023-02-25T15:36:04.050Z,7.80
2023-02-25T15:38:47.976Z,8.00
2023-02-25T15:41:46.004Z,8.10
2023-02-25T15:44:38.644Z,8.00
2023-02-25T15:47:31.866Z,7.80
2023-02-25T15:50:02.052Z,7.90
2023-02-25T15:53:01.995Z,7.70
2023-02-25T15:55:42.345Z,7.50
2023-02-25T15:58:51.596Z,7.30
2023-02-25T16:01:47.029Z,7.10
2023-02-25T16:04:48.956Z,7.00
2023-02-25T16:07:23.469Z,7.00
2023-02-25T16:10:02.350Z,8.20
2023-02-25T16:12:33.192Z,6.90
2023-02-25T16:15:05.538Z,6.70
2023-02-25T16:17:38.111Z,6.80
2023-02-25T16:20:24.642Z,5.90
2023-02-25T16:23:00.511Z,6.20
2023-02-25T16:25:58.171Z,6.20
2023-02-25T16:28:42.208Z,6.70
2023-02-25T16:31:23.732Z,6.00
2023-02-25T16:34:03.930Z,5.60
2023-02-25T16:36:44.946Z,6.00
2023-02-25T16:39:20.772Z,6.40
2023-02-25T16:41:58.243Z,6.10
2023-02-25T16:44:36.500Z,6.20
2023-02-25T16:47:22.966Z,6.20
2023-02-25T16:49:56.084Z,6.20
2023-02-25T16:52:32.022Z,6.20
2023-02-25T16:55:06.214Z,6.70
2023-02-25T16:57:38.008Z,6.10
2023-02-25T17:00:25.877Z,6.20
2023-02-25T17:03:02.772Z,5.70
2023-02-25T17:05:35.162Z,5.40
2023-02-25T17:08:23.726Z,5.10
2023-02-25T17:10:59.392Z,5.40
2023-02-25T17:13:45.725Z,5.50
2023-02-25T17:19:29.533Z,5.70
2023-02-25T17:25:02.689Z,4.60
2023-02-25T17:27:49.739Z,4.60
2023-02-25T17:30:49.657Z,5.10
2023-02-25T17:33:39.993Z,4.60
2023-02-25T17:36:15.632Z,4.80
2023-02-25T17:38:52.933Z,4.40
2023-02-25T17:41:29.565Z,3.80
2023-02-25T17:44:05.271Z,4.50
2023-02-25T17:50:05.315Z,5.10
2023-02-25T17:52:55.640Z,4.60
2023-02-25T17:55:36.243Z,4.50
2023-02-25T17:58:13.725Z,4.80
2023-02-25T18:01:08.444Z,4.50
2023-02-25T18:03:57.762Z,4.50
2023-02-25T18:09:42.858Z,4.50
2023-02-25T18:12:47.438Z,4.60
2023-02-25T18:15:19.915Z,4.90
2023-02-25T18:17:52.110Z,4.70
2023-02-25T18:20:33.288Z,5.10
2023-02-25T18:23:04.616Z,4.70
2023-02-25T18:25:37.979Z,4.80
2023-02-25T18:28:12.915Z,5.40
2023-02-25T18:30:42.935Z,5.00
2023-02-25T18:33:13.946Z,4.70
2023-02-25T18:35:49.366Z,4.70
2023-02-25T18:38:23.309Z,4.70
2023-02-25T18:40:55.184Z,4.90
2023-02-25T18:43:33.659Z,4.70
2023-02-25T18:46:06.513Z,4.80
2023-02-25T18:48:38.619Z,5.40
2023-02-25T18:51:18.555Z,4.70
2023-02-25T18:53:47.022Z,5.90
2023-02-25T18:56:30.774Z,4.70
2023-02-25T18:59:01.961Z,5.20
2023-02-25T19:08:19.072Z,4.50
2023-02-25T19:14:16.288Z,4.70
2023-02-25T19:17:02.029Z,4.40
2023-02-25T19:20:00.901Z,4.50
2023-02-25T19:22:36.300Z,4.80
2023-02-25T19:25:20.835Z,4.50
2023-02-25T19:27:51.513Z,4.60
2023-02-25T19:30:28.683Z,5.30
2023-02-25T19:35:46.355Z,4.50
2023-02-25T19:38:21.973Z,5.30
2023-02-25T19:40:56.603Z,4.60
2023-02-25T19:43:30.484Z,4.40
2023-02-25T19:46:02.966Z,5.00
2023-02-25T19:48:36.872Z,4.50
2023-02-25T19:51:12.364Z,4.40
2023-02-25T19:53:47.074Z,4.40
2023-02-25T19:56:19.865Z,4.60
2023-02-25T19:58:48.418Z,5.00
2023-02-25T20:01:19.773Z,4.60
2023-02-25T20:03:51.111Z,4.20
2023-02-25T20:06:20.343Z,4.40
2023-02-25T20:08:53.854Z,4.20
2023-02-25T20:11:24.761Z,4.40
2023-02-25T20:13:55.077Z,4.20
2023-02-25T20:16:25.718Z,4.10
2023-02-25T20:18:58.067Z,4.00
2023-02-25T20:21:28.900Z,4.40
2023-02-25T20:24:01.525Z,4.10
2023-02-25T20:26:34.310Z,4.50
2023-02-25T20:29:05.617Z,4.20
2023-02-25T20:31:35.511Z,4.30
2023-02-25T20:34:06.436Z,5.60
2023-02-25T20:36:43.737Z,3.90
2023-02-25T20:39:44.123Z,3.80
2023-02-25T20:42:21.390Z,3.80
2023-02-25T20:44:52.978Z,3.70
2023-02-25T20:47:27.218Z,3.70
2023-02-25T20:49:58.513Z,3.60
2023-02-25T20:52:30.875Z,3.60
2023-02-25T20:55:00.824Z,3.30
2023-02-25T20:57:37.433Z,3.50
2023-02-25T21:00:14.534Z,3.50
2023-02-25T21:02:49.371Z,3.50
2023-02-25T21:05:19.860Z,3.40
2023-02-25T21:07:52.000Z,3.60
2023-02-25T21:10:22.008Z,3.10
2023-02-25T21:12:54.426Z,3.30
2023-02-25T21:15:28.118Z,4.00
2023-02-25T21:17:57.871Z,3.30
2023-02-25T21:20:31.967Z,3.60
2023-02-25T21:23:03.821Z,3.40
2023-02-25T21:25:35.076Z,3.40
2023-02-25T21:28:07.364Z,3.10
2023-02-25T21:30:37.847Z,3.40
2023-02-25T21:33:10.698Z,3.40
2023-02-25T21:35:42.059Z,3.20
2023-02-25T21:38:11.527Z,3.40
2023-02-25T21:40:40.724Z,3.20
2023-02-25T21:43:11.564Z,3.70
2023-02-25T21:45:40.374Z,3.00
2023-02-25T21:48:10.213Z,3.00
2023-02-25T21:50:39.548Z,2.90
2023-02-25T21:53:09.029Z,3.80
2023-02-25T21:55:38.730Z,3.40
2023-02-25T21:58:07.844Z,3.60
2023-02-25T22:00:39.303Z,2.70
2023-02-25T22:03:12.262Z,3.70
2023-02-25T22:05:45.997Z,3.10
2023-02-25T22:08:17.113Z,3.60
2023-02-25T22:10:48.848Z,2.90
2023-02-25T22:13:19.153Z,3.10
2023-02-25T22:15:51.317Z,2.60
2023-02-25T22:18:21.106Z,2.70
2023-02-25T22:20:50.364Z,2.60
2023-02-25T22:23:19.284Z,3.80
2023-02-25T22:25:51.561Z,2.60
2023-02-25T22:28:21.754Z,2.80
2023-02-25T22:30:54.273Z,3.10
2023-02-25T22:33:23.413Z,2.90
2023-02-25T22:36:00.068Z,2.50
2023-02-25T22:38:31.000Z,2.70
2023-02-25T22:41:01.487Z,2.50
2023-02-25T22:43:32.412Z,2.50
2023-02-25T22:46:11.092Z,2.90
2023-02-25T22:48:42.915Z,2.40
2023-02-25T22:51:19.944Z,2.40
2023-02-25T22:53:48.694Z,2.30
2023-02-25T22:56:17.835Z,2.20
2023-02-25T22:58:47.531Z,2.30
2023-02-25T23:01:22.990Z,2.60
2023-02-25T23:03:55.233Z,2.30
2023-02-25T23:06:37.333Z,3.80
2023-02-25T23:09:11.706Z,2.30
2023-02-25T23:11:44.270Z,2.60
2023-02-25T23:14:14.312Z,2.20
2023-02-25T23:16:48.155Z,2.40
2023-02-25T23:19:19.802Z,2.10
2023-02-25T23:21:49.725Z,2.20
2023-02-25T23:24:19.666Z,2.10
2023-02-25T23:26:54.208Z,2.10
2023-02-25T23:29:23.736Z,2.10
2023-02-25T23:31:56.133Z,2.20
2023-02-25T23:34:26.651Z,2.10
2023-02-25T23:36:58.360Z,2.10
2023-02-25T23:39:28.053Z,2.40
2023-02-25T23:41:59.341Z,2.10
2023-02-25T23:44:28.036Z,2.30
2023-02-25T23:46:59.190Z,2.20
2023-02-25T23:49:30.224Z,2.70
2023-02-25T23:51:59.294Z,2.20
2023-02-25T23:54:32.925Z,2.00
2023-02-25T23:57:04.125Z,2.00
2023-02-25T23:59:34.399Z,2.00
